createdAt,value
2022-12-04T00:00:07.295Z,2.56
2022-12-04T00:01:07.275Z,2.54
2022-12-04T00:02:07.285Z,2.60
2022-12-04T00:03:07.297Z,2.56
2022-12-04T00:04:07.286Z,2.56
2022-12-04T00:05:07.336Z,2.54
2022-12-04T00:06:07.234Z,2.53
2022-12-04T00:07:07.545Z,2.56
2022-12-04T00:08:07.299Z,2.54
2022-12-04T00:09:07.197Z,2.56
2022-12-04T00:10:07.201Z,2.54
2022-12-04T00:11:07.202Z,2.54
2022-12-04T00:12:07.845Z,2.56
2022-12-04T00:13:07.167Z,2.56
2022-12-04T00:14:07.620Z,2.54
2022-12-04T00:16:08.195Z,2.57
2022-12-04T00:17:07.118Z,2.57
2022-12-04T00:18:07.098Z,2.57
2022-12-04T00:19:07.097Z,2.59
2022-12-04T00:20:07.077Z,2.59
2022-12-04T00:21:07.078Z,2.56
2022-12-04T00:22:07.089Z,2.56
2022-12-04T00:23:07.058Z,2.57
2022-12-04T00:24:07.046Z,2.57
2022-12-04T00:25:07.058Z,2.57
2022-12-04T00:26:07.013Z,2.57
2022-12-04T00:27:07.119Z,2.57
2022-12-04T00:28:06.989Z,2.60
2022-12-04T00:29:06.999Z,2.57
2022-12-04T00:30:06.980Z,2.59
2022-12-04T00:31:07.049Z,2.59
2022-12-04T00:32:07.010Z,2.59
2022-12-04T00:33:06.950Z,2.60
2022-12-04T00:34:08.320Z,2.60
2022-12-04T00:35:06.930Z,2.61
2022-12-04T00:36:06.912Z,2.60
2022-12-04T00:37:06.910Z,2.61
2022-12-04T00:38:06.903Z,2.59
2022-12-04T00:39:06.901Z,2.60
2022-12-04T00:40:06.871Z,2.60
2022-12-04T00:41:06.871Z,2.59
2022-12-04T00:42:06.871Z,2.59
2022-12-04T00:43:06.912Z,2.61
2022-12-04T00:44:06.843Z,2.60
2022-12-04T00:45:06.852Z,2.61
2022-12-04T00:46:06.944Z,2.61
2022-12-04T00:47:06.814Z,2.63
2022-12-04T00:48:06.863Z,2.61
2022-12-04T00:49:06.783Z,2.63
2022-12-04T00:50:06.774Z,2.63
2022-12-04T00:51:06.786Z,2.63
2022-12-04T00:52:06.750Z,2.61
2022-12-04T00:53:06.745Z,2.63
2022-12-04T00:54:06.778Z,2.63
2022-12-04T00:55:06.794Z,2.61
2022-12-04T00:56:06.823Z,2.63
2022-12-04T00:57:06.706Z,2.61
2022-12-04T00:58:06.685Z,2.64
2022-12-04T00:59:06.685Z,2.63
2022-12-04T01:00:06.675Z,2.63
2022-12-04T01:01:07.630Z,2.64
2022-12-04T01:02:06.646Z,2.64
2022-12-04T01:03:06.747Z,2.63
2022-12-04T01:04:06.623Z,2.63
2022-12-04T01:05:06.806Z,2.63
2022-12-04T01:06:06.602Z,2.63
2022-12-04T01:07:06.606Z,2.60
2022-12-04T01:08:06.753Z,2.63
2022-12-04T01:09:06.588Z,2.64
2022-12-04T01:10:06.557Z,2.63
2022-12-04T01:11:06.558Z,2.60
2022-12-04T01:12:06.549Z,2.63
2022-12-04T01:13:06.556Z,2.60
2022-12-04T01:14:06.537Z,2.60
2022-12-04T01:15:06.519Z,2.60
2022-12-04T01:16:06.554Z,2.61
2022-12-04T01:17:06.559Z,2.63
2022-12-04T01:18:06.481Z,2.60
2022-12-04T01:19:06.488Z,2.61
2022-12-04T01:20:06.575Z,2.61
2022-12-04T01:21:06.458Z,2.60
2022-12-04T01:22:06.552Z,2.59
2022-12-04T01:23:06.439Z,2.56
2022-12-04T01:24:06.422Z,2.59
2022-12-04T01:25:06.418Z,2.57
2022-12-04T01:26:06.391Z,2.57
2022-12-04T01:27:06.428Z,2.59
2022-12-04T01:28:06.389Z,2.59
2022-12-04T01:29:06.381Z,2.57
2022-12-04T01:30:06.350Z,2.57
2022-12-04T01:31:06.351Z,2.57
2022-12-04T01:32:06.386Z,2.57
2022-12-04T01:33:06.340Z,2.57
2022-12-04T01:34:07.047Z,2.56
2022-12-04T01:35:06.320Z,2.59
2022-12-04T01:36:06.304Z,2.57
2022-12-04T01:37:06.295Z,2.57
2022-12-04T01:38:06.270Z,2.56
2022-12-04T01:39:06.382Z,2.59
2022-12-04T01:40:06.261Z,2.54
2022-12-04T01:41:06.245Z,2.53
2022-12-04T01:42:06.412Z,2.57
2022-12-04T01:43:06.226Z,2.56
2022-12-04T01:44:06.205Z,2.56
2022-12-04T01:45:06.204Z,2.53
2022-12-04T01:46:06.234Z,2.53
2022-12-04T01:47:06.187Z,2.49
2022-12-04T01:48:06.163Z,2.49
2022-12-04T01:49:06.166Z,2.48
2022-12-04T01:50:06.143Z,2.48
2022-12-04T01:51:06.154Z,2.46
2022-12-04T01:52:06.131Z,2.45
2022-12-04T01:53:06.115Z,2.45
2022-12-04T01:54:06.104Z,2.45
2022-12-04T01:55:06.141Z,2.45
2022-12-04T01:56:06.576Z,2.45
2022-12-04T01:57:06.107Z,2.45
2022-12-04T01:58:06.056Z,2.42
2022-12-04T01:59:06.056Z,2.39
2022-12-04T02:00:06.045Z,2.41
2022-12-04T02:01:08.740Z,2.39
2022-12-04T02:02:06.212Z,2.38
2022-12-04T02:03:06.083Z,2.36
2022-12-04T02:04:06.030Z,2.39
2022-12-04T02:05:05.994Z,2.35
2022-12-04T02:06:05.978Z,2.36
2022-12-04T02:07:05.977Z,2.35
2022-12-04T02:08:06.124Z,2.35
2022-12-04T02:09:05.958Z,2.36
2022-12-04T02:10:05.956Z,2.35
2022-12-04T02:11:05.936Z,2.35
2022-12-04T02:12:05.940Z,2.34
2022-12-04T02:13:05.923Z,2.30
2022-12-04T02:14:06.688Z,2.30
2022-12-04T02:15:05.914Z,2.28
2022-12-04T02:16:05.912Z,2.27
2022-12-04T02:17:06.719Z,2.27
2022-12-04T02:18:05.848Z,2.24
2022-12-04T02:19:05.849Z,2.27
2022-12-04T02:20:05.842Z,2.24
2022-12-04T02:21:05.844Z,2.21
2022-12-04T02:22:05.822Z,2.21
2022-12-04T02:23:05.809Z,2.20
2022-12-04T02:24:05.790Z,2.18
2022-12-04T02:25:05.800Z,2.20
2022-12-04T02:26:05.777Z,2.20
2022-12-04T02:27:05.774Z,2.20
2022-12-04T02:28:06.178Z,2.16
2022-12-04T02:29:05.750Z,2.16
2022-12-04T02:30:05.749Z,2.14
2022-12-04T02:31:05.770Z,2.14
2022-12-04T02:32:05.702Z,2.12
2022-12-04T02:33:06.513Z,2.09
2022-12-04T02:34:05.682Z,2.09
2022-12-04T02:35:05.682Z,2.12
2022-12-04T02:36:05.838Z,2.12
2022-12-04T02:37:06.448Z,2.16
2022-12-04T02:41:53.400Z,2.12
2022-12-04T02:42:53.360Z,2.12
2022-12-04T02:43:53.369Z,2.10
2022-12-04T02:44:53.353Z,2.12
2022-12-04T02:45:53.379Z,2.12
2022-12-04T02:46:53.333Z,2.12
2022-12-04T02:47:53.324Z,2.09
2022-12-04T02:48:53.300Z,2.09
2022-12-04T02:49:53.537Z,2.09
2022-12-04T02:50:53.291Z,2.07
2022-12-04T02:51:53.384Z,2.09
2022-12-04T02:52:53.264Z,2.06
2022-12-04T02:53:53.256Z,2.06
2022-12-04T02:54:53.237Z,2.05
2022-12-04T02:55:53.237Z,2.05
2022-12-04T02:56:53.215Z,2.05
2022-12-04T02:57:53.225Z,2.06
2022-12-04T02:58:53.195Z,2.06
2022-12-04T02:59:53.633Z,2.05
2022-12-04T03:00:53.256Z,2.02
2022-12-04T03:01:53.246Z,2.00
2022-12-04T03:02:53.339Z,2.02
2022-12-04T03:03:53.165Z,2.02
2022-12-04T03:04:53.136Z,2.03
2022-12-04T03:05:53.126Z,2.02
2022-12-04T03:06:53.107Z,2.02
2022-12-04T03:07:53.172Z,2.03
2022-12-04T03:08:53.086Z,2.03
2022-12-04T03:09:53.358Z,2.03
2022-12-04T03:10:53.078Z,2.03
2022-12-04T03:11:53.068Z,2.02
2022-12-04T03:12:53.052Z,1.99
2022-12-04T03:13:53.048Z,2.03
2022-12-04T03:14:53.017Z,2.03
2022-12-04T03:15:53.027Z,2.03
2022-12-04T03:16:53.039Z,2.05
2022-12-04T03:17:53.021Z,2.02
2022-12-04T03:18:52.978Z,2.02
2022-12-04T03:19:53.368Z,2.02
2022-12-04T03:20:52.969Z,2.02
2022-12-04T03:21:52.979Z,2.02
2022-12-04T03:22:52.950Z,2.00
2022-12-04T03:23:52.949Z,1.99
2022-12-04T03:24:52.928Z,2.02
2022-12-04T03:25:53.488Z,1.99
2022-12-04T03:26:52.902Z,2.02
2022-12-04T03:27:52.921Z,1.99
2022-12-04T03:28:52.892Z,1.95
2022-12-04T03:29:53.208Z,1.98
2022-12-04T03:30:52.957Z,1.99
2022-12-04T03:31:52.850Z,1.98
2022-12-04T03:32:52.841Z,1.98
2022-12-04T03:33:52.842Z,1.98
2022-12-04T03:34:52.830Z,2.02
2022-12-04T03:35:52.811Z,2.00
2022-12-04T03:36:52.810Z,2.02
2022-12-04T03:37:52.793Z,2.00
2022-12-04T03:38:52.790Z,1.98
2022-12-04T03:39:53.373Z,1.98
2022-12-04T03:40:52.763Z,1.98
2022-12-04T03:41:52.752Z,1.98
2022-12-04T03:42:52.740Z,1.98
2022-12-04T03:43:52.744Z,1.93
2022-12-04T03:44:52.718Z,1.93
2022-12-04T03:45:52.807Z,1.93
2022-12-04T03:46:52.715Z,1.98
2022-12-04T03:47:52.705Z,1.95
2022-12-04T03:48:52.674Z,1.98
2022-12-04T03:49:52.813Z,1.98
2022-12-04T03:50:52.646Z,1.98
2022-12-04T03:51:52.657Z,1.98
2022-12-04T03:52:52.915Z,1.98
2022-12-04T03:53:52.625Z,1.98
2022-12-04T03:54:52.612Z,1.93
2022-12-04T03:55:52.619Z,1.93
2022-12-04T03:56:52.591Z,1.95
2022-12-04T03:57:52.655Z,1.95
2022-12-04T03:58:52.576Z,1.91
2022-12-04T03:59:55.866Z,1.91
2022-12-04T04:00:52.558Z,1.93
2022-12-04T04:01:52.621Z,1.90
2022-12-04T04:02:52.566Z,1.91
2022-12-04T04:03:52.546Z,1.93
2022-12-04T04:04:52.519Z,1.93
2022-12-04T04:05:52.505Z,1.91
2022-12-04T04:06:52.486Z,1.93
2022-12-04T04:07:52.536Z,1.93
2022-12-04T04:08:52.466Z,1.93
2022-12-04T04:09:52.790Z,1.91
2022-12-04T04:10:52.657Z,1.91
2022-12-04T04:11:53.248Z,1.90
2022-12-04T04:12:52.429Z,1.91
2022-12-04T04:13:52.408Z,1.90
2022-12-04T04:14:52.408Z,1.90
2022-12-04T04:15:52.457Z,1.88
2022-12-04T04:16:52.400Z,1.86
2022-12-04T04:17:52.368Z,1.87
2022-12-04T04:18:52.389Z,1.87
2022-12-04T04:19:52.395Z,1.87
2022-12-04T04:20:52.354Z,1.87
2022-12-04T04:21:52.323Z,1.87
2022-12-04T04:22:55.962Z,1.86
2022-12-04T04:23:52.320Z,1.88
2022-12-04T04:24:53.120Z,1.88
2022-12-04T04:25:52.287Z,1.88
2022-12-04T04:26:52.281Z,1.84
2022-12-04T04:27:52.260Z,1.86
2022-12-04T04:28:52.280Z,1.84
2022-12-04T04:29:53.156Z,1.87
2022-12-04T04:30:52.304Z,1.84
2022-12-04T04:31:52.243Z,1.86
2022-12-04T04:32:52.380Z,1.86
2022-12-04T04:33:52.202Z,1.86
2022-12-04T04:34:52.205Z,1.81
2022-12-04T04:35:52.183Z,1.83
2022-12-04T04:36:52.193Z,1.83
2022-12-04T04:37:52.182Z,1.84
2022-12-04T04:38:52.153Z,1.83
2022-12-04T04:39:52.242Z,1.83
2022-12-04T04:40:52.144Z,1.81
2022-12-04T04:41:52.121Z,1.80
2022-12-04T04:42:52.293Z,1.81
2022-12-04T04:43:52.130Z,1.81
2022-12-04T04:44:52.160Z,1.83
2022-12-04T04:45:52.071Z,1.81
2022-12-04T04:46:52.117Z,1.81
2022-12-04T04:47:52.059Z,1.80
2022-12-04T04:48:52.064Z,1.80
2022-12-04T04:49:52.186Z,1.83
2022-12-04T04:50:52.046Z,1.83
2022-12-04T04:51:52.045Z,1.81
2022-12-04T04:52:52.024Z,1.81
2022-12-04T04:53:52.005Z,1.84
2022-12-04T04:54:51.985Z,1.83
2022-12-04T04:55:51.966Z,1.84
2022-12-04T04:56:51.965Z,1.84
2022-12-04T04:57:51.953Z,1.84
2022-12-04T04:58:51.966Z,1.81
2022-12-04T04:59:52.079Z,1.81
2022-12-04T05:00:52.446Z,1.84
2022-12-04T05:01:52.001Z,1.83
2022-12-04T05:02:51.975Z,1.81
2022-12-04T05:03:51.898Z,1.83
2022-12-04T05:04:51.986Z,1.81
2022-12-04T05:05:51.875Z,1.81
2022-12-04T05:06:51.900Z,1.80
2022-12-04T05:07:51.892Z,1.81
2022-12-04T05:08:51.850Z,1.80
2022-12-04T05:09:52.496Z,1.80
2022-12-04T05:10:51.828Z,1.81
2022-12-04T05:11:51.811Z,1.80
2022-12-04T05:12:51.797Z,1.83
2022-12-04T05:13:51.779Z,1.80
2022-12-04T05:14:51.788Z,1.81
2022-12-04T05:15:51.810Z,1.80
2022-12-04T05:16:51.770Z,1.80
2022-12-04T05:17:51.739Z,1.80
2022-12-04T05:18:51.745Z,1.80
2022-12-04T05:19:51.725Z,1.79
2022-12-04T05:20:51.720Z,1.79
2022-12-04T05:21:51.708Z,1.77
2022-12-04T05:22:51.700Z,1.79
2022-12-04T05:23:51.681Z,1.79
2022-12-04T05:24:51.675Z,1.79
2022-12-04T05:25:51.658Z,1.80
2022-12-04T05:26:51.678Z,1.80
2022-12-04T05:27:51.640Z,1.79
2022-12-04T05:28:51.651Z,1.80
2022-12-04T05:29:51.622Z,1.79
2022-12-04T05:30:51.706Z,1.80
2022-12-04T05:31:51.592Z,1.81
2022-12-04T05:32:51.593Z,1.80
2022-12-04T05:33:51.619Z,1.80
2022-12-04T05:34:51.601Z,1.79
2022-12-04T05:35:51.564Z,1.80
2022-12-04T05:36:51.551Z,1.80
2022-12-04T05:37:51.530Z,1.80
2022-12-04T05:38:51.544Z,1.79
2022-12-04T05:39:51.515Z,1.80
2022-12-04T05:40:51.524Z,1.79
2022-12-04T05:41:51.524Z,1.77
2022-12-04T05:42:51.487Z,1.77
2022-12-04T05:43:51.462Z,1.79
2022-12-04T05:44:51.467Z,1.80
2022-12-04T05:45:51.451Z,1.77
2022-12-04T05:46:51.529Z,1.80
2022-12-04T05:47:51.426Z,1.79
2022-12-04T05:48:51.423Z,1.80
2022-12-04T05:49:51.406Z,1.81
2022-12-04T05:50:51.412Z,1.80
2022-12-04T05:51:51.405Z,1.81
2022-12-04T05:52:51.387Z,1.81
2022-12-04T05:53:52.180Z,1.83
2022-12-04T05:54:51.376Z,1.83
2022-12-04T05:55:51.337Z,1.84
2022-12-04T05:56:51.337Z,1.83
2022-12-04T05:57:51.317Z,1.81
2022-12-04T05:58:51.316Z,1.80
2022-12-04T05:59:51.297Z,1.80
2022-12-04T06:00:51.308Z,1.81
2022-12-04T06:01:51.343Z,1.83
2022-12-04T06:02:51.316Z,1.80
2022-12-04T06:03:51.257Z,1.83
2022-12-04T06:04:51.266Z,1.81
2022-12-04T06:05:51.239Z,1.84
2022-12-04T06:06:51.246Z,1.83
2022-12-04T06:07:51.272Z,1.81
2022-12-04T06:08:51.212Z,1.83
2022-12-04T06:09:51.197Z,1.81
2022-12-04T06:10:51.199Z,1.80
2022-12-04T06:11:51.189Z,1.81
2022-12-04T06:12:51.179Z,1.80
2022-12-04T06:13:51.152Z,1.81
2022-12-04T06:14:51.158Z,1.81
2022-12-04T06:15:51.130Z,1.81
2022-12-04T06:16:51.201Z,1.83
2022-12-04T06:17:51.110Z,1.80
2022-12-04T06:18:51.189Z,1.81
2022-12-04T06:19:51.164Z,1.80
2022-12-04T06:20:51.108Z,1.83
2022-12-04T06:21:51.075Z,1.84
2022-12-04T06:22:51.169Z,1.81
2022-12-04T06:23:51.051Z,1.81
2022-12-04T06:24:51.050Z,1.83
2022-12-04T06:25:51.044Z,1.81
2022-12-04T06:27:25.767Z,1.83
2022-12-04T06:27:52.014Z,1.81
2022-12-04T06:28:51.003Z,1.84
2022-12-04T06:29:50.987Z,1.83
2022-12-04T06:30:50.989Z,1.83
2022-12-04T06:31:51.015Z,1.83
2022-12-04T06:32:50.975Z,1.84
2022-12-04T06:33:50.951Z,1.86
2022-12-04T06:34:50.981Z,1.87
2022-12-04T06:35:50.921Z,1.88
2022-12-04T06:36:50.990Z,1.86
2022-12-04T06:37:50.906Z,1.87
2022-12-04T06:38:50.904Z,1.86
2022-12-04T06:39:50.896Z,1.86
2022-12-04T06:40:50.883Z,1.86
2022-12-04T06:41:50.872Z,1.87
2022-12-04T06:42:51.846Z,1.86
2022-12-04T06:43:50.843Z,1.87
2022-12-04T06:44:50.846Z,1.87
2022-12-04T06:45:50.859Z,1.86
2022-12-04T06:46:50.838Z,1.87
2022-12-04T06:47:50.805Z,1.87
2022-12-04T06:48:50.799Z,1.88
2022-12-04T06:49:50.776Z,1.88
2022-12-04T06:50:50.776Z,1.90
2022-12-04T06:51:50.771Z,1.88
2022-12-04T06:52:50.756Z,1.88
2022-12-04T06:53:50.735Z,1.88
2022-12-04T06:54:50.746Z,1.88
2022-12-04T06:55:50.723Z,1.90
2022-12-04T06:56:50.860Z,1.91
2022-12-04T06:57:50.743Z,1.90
2022-12-04T06:58:50.702Z,1.90
2022-12-04T06:59:50.684Z,1.88
2022-12-04T07:00:50.774Z,1.91
2022-12-04T07:01:50.817Z,1.87
2022-12-04T07:02:50.776Z,1.88
2022-12-04T07:03:51.811Z,1.88
2022-12-04T07:04:50.645Z,1.90
2022-12-04T07:05:50.634Z,1.91
2022-12-04T07:06:50.648Z,1.91
2022-12-04T07:07:50.650Z,1.95
2022-12-04T07:08:50.599Z,1.93
2022-12-04T07:09:50.580Z,1.90
2022-12-04T07:10:55.807Z,1.91
2022-12-04T07:11:51.581Z,1.93
2022-12-04T07:12:50.613Z,1.93
2022-12-04T07:13:50.544Z,1.95
2022-12-04T07:14:50.521Z,1.98
2022-12-04T07:15:50.515Z,1.98
2022-12-04T07:16:50.569Z,1.99
2022-12-04T07:17:50.557Z,1.99
2022-12-04T07:18:50.491Z,1.98
2022-12-04T07:19:50.532Z,1.99
2022-12-04T07:20:50.533Z,1.98
2022-12-04T07:21:50.474Z,1.95
2022-12-04T07:22:50.452Z,2.00
2022-12-04T07:23:50.463Z,2.00
2022-12-04T07:24:50.437Z,2.00
2022-12-04T07:25:50.582Z,2.02
2022-12-04T07:26:50.452Z,2.00
2022-12-04T07:27:50.394Z,2.03
2022-12-04T07:28:50.411Z,2.03
2022-12-04T07:29:50.393Z,2.02
2022-12-04T07:30:50.371Z,2.05
2022-12-04T07:31:51.345Z,2.06
2022-12-04T07:32:50.372Z,2.03
2022-12-04T07:33:50.355Z,2.09
2022-12-04T07:34:50.325Z,2.09
2022-12-04T07:35:50.301Z,2.07
2022-12-04T07:36:50.375Z,2.06
2022-12-04T07:37:50.333Z,2.07
2022-12-04T07:38:50.274Z,2.12
2022-12-04T07:39:50.265Z,2.10
2022-12-04T07:40:50.275Z,2.12
2022-12-04T07:41:50.244Z,2.16
2022-12-04T07:42:50.255Z,2.16
2022-12-04T07:43:50.227Z,2.16
2022-12-04T07:44:50.251Z,2.14
2022-12-04T07:45:50.275Z,2.16
2022-12-04T07:46:50.233Z,2.17
2022-12-04T07:47:50.313Z,2.17
2022-12-04T07:48:50.178Z,2.18
2022-12-04T07:49:50.157Z,2.20
2022-12-04T07:50:50.155Z,2.18
2022-12-04T07:51:50.147Z,2.18
2022-12-04T07:52:50.149Z,2.20
2022-12-04T07:53:50.128Z,2.20
2022-12-04T07:54:50.117Z,2.17
2022-12-04T07:55:50.102Z,2.18
2022-12-04T07:56:50.097Z,2.17
2022-12-04T07:57:50.076Z,2.17
2022-12-04T07:58:50.869Z,2.18
2022-12-04T07:59:50.055Z,2.16
2022-12-04T08:00:50.201Z,2.17
2022-12-04T08:01:50.151Z,2.17
2022-12-04T08:02:50.047Z,2.18
2022-12-04T08:03:50.832Z,2.20
2022-12-04T08:04:50.089Z,2.17
2022-12-04T08:05:49.997Z,2.20
2022-12-04T08:06:49.992Z,2.20
2022-12-04T08:07:50.041Z,2.21
2022-12-04T08:08:50.005Z,2.21
2022-12-04T08:09:49.958Z,2.20
2022-12-04T08:10:49.963Z,2.23
2022-12-04T08:11:49.982Z,2.23
2022-12-04T08:12:49.960Z,2.23
2022-12-04T08:13:49.910Z,2.23
2022-12-04T08:14:49.911Z,2.23
2022-12-04T08:15:49.931Z,2.24
2022-12-04T08:16:52.914Z,2.24
2022-12-04T08:17:49.870Z,2.27
2022-12-04T08:18:49.869Z,2.25
2022-12-04T08:19:49.842Z,2.24
2022-12-04T08:20:49.851Z,2.27
2022-12-04T08:21:49.840Z,2.28
2022-12-04T08:22:49.832Z,2.28
2022-12-04T08:23:49.803Z,2.30
2022-12-04T08:24:49.804Z,2.31
2022-12-04T08:25:49.782Z,2.31
2022-12-04T08:26:49.781Z,2.27
2022-12-04T08:27:49.783Z,2.28
2022-12-04T08:28:49.764Z,2.28
2022-12-04T08:29:49.777Z,2.28
2022-12-04T08:30:49.769Z,2.28
2022-12-04T08:31:49.724Z,2.30
2022-12-04T08:32:49.705Z,2.30
2022-12-04T08:33:49.806Z,2.30
2022-12-04T08:34:55.375Z,2.31
2022-12-04T08:35:50.715Z,2.34
2022-12-04T08:36:49.674Z,2.35
2022-12-04T08:37:49.671Z,2.35
2022-12-04T08:38:49.657Z,2.35
2022-12-04T08:39:49.656Z,2.36
2022-12-04T08:40:49.623Z,2.35
2022-12-04T08:41:53.915Z,2.35
2022-12-04T08:42:50.606Z,2.38
2022-12-04T08:43:49.598Z,2.36
2022-12-04T08:44:49.588Z,2.35
2022-12-04T08:45:49.682Z,2.34
2022-12-04T08:46:49.628Z,2.35
2022-12-04T08:47:52.602Z,2.36
2022-12-04T08:48:49.568Z,2.36
2022-12-04T08:49:49.537Z,2.36
2022-12-04T08:50:49.517Z,2.36
2022-12-04T08:51:49.559Z,2.36
2022-12-04T08:52:49.515Z,2.41
2022-12-04T08:53:49.509Z,2.39
2022-12-04T08:54:49.477Z,2.41
2022-12-04T08:55:49.481Z,2.38
2022-12-04T08:56:49.461Z,2.38
2022-12-04T08:57:49.458Z,2.38
2022-12-04T08:58:49.551Z,2.41
2022-12-04T08:59:49.438Z,2.39
2022-12-04T09:00:49.421Z,2.42
2022-12-04T09:01:49.456Z,2.43
2022-12-04T09:02:49.410Z,2.42
2022-12-04T09:03:49.400Z,2.43
2022-12-04T09:04:49.575Z,2.42
2022-12-04T09:05:49.380Z,2.41
2022-12-04T09:06:49.359Z,2.45
2022-12-04T09:07:49.395Z,2.48
2022-12-04T09:08:49.351Z,2.48
2022-12-04T09:09:49.350Z,2.53
2022-12-04T09:10:49.331Z,2.53
2022-12-04T09:11:49.321Z,2.54
2022-12-04T09:12:49.300Z,2.56
2022-12-04T09:13:49.303Z,2.56
2022-12-04T09:14:49.302Z,2.57
2022-12-04T09:15:49.311Z,2.56
2022-12-04T09:16:49.262Z,2.57
2022-12-04T09:17:49.254Z,2.59
2022-12-04T09:18:49.244Z,2.57
2022-12-04T09:19:49.250Z,2.56
2022-12-04T09:20:49.224Z,2.57
2022-12-04T09:21:49.223Z,2.59
2022-12-04T09:23:03.243Z,2.63
2022-12-04T09:23:50.193Z,2.61
2022-12-04T09:24:49.184Z,2.64
2022-12-04T09:25:49.182Z,2.61
2022-12-04T09:26:49.164Z,2.63
2022-12-04T09:27:49.156Z,2.61
2022-12-04T09:28:49.140Z,2.63
2022-12-04T09:29:49.125Z,2.64
2022-12-04T09:30:49.197Z,2.66
2022-12-04T09:31:49.109Z,2.64
2022-12-04T09:32:49.102Z,2.63
2022-12-04T09:33:49.095Z,2.64
2022-12-04T09:34:52.707Z,2.64
2022-12-04T09:35:49.075Z,2.66
2022-12-04T09:36:49.193Z,2.67
2022-12-04T09:37:49.052Z,2.66
2022-12-04T09:38:49.035Z,2.69
2022-12-04T09:39:49.026Z,2.69
2022-12-04T09:40:49.027Z,2.71
2022-12-04T09:41:49.018Z,2.71
2022-12-04T09:42:48.991Z,2.71
2022-12-04T09:43:48.991Z,2.71
2022-12-04T09:44:49.104Z,2.67
2022-12-04T09:45:48.967Z,2.69
2022-12-04T09:46:51.178Z,2.71
2022-12-04T09:47:48.937Z,2.75
2022-12-04T09:48:48.930Z,2.75
2022-12-04T09:49:48.921Z,2.75
2022-12-04T09:50:48.915Z,2.77
2022-12-04T09:51:48.898Z,2.78
2022-12-04T09:52:48.887Z,2.75
2022-12-04T09:53:49.040Z,2.77
2022-12-04T09:54:48.864Z,2.78
2022-12-04T09:55:48.871Z,2.78
2022-12-04T09:56:48.852Z,2.79
2022-12-04T09:57:48.861Z,2.81
2022-12-04T09:58:48.850Z,2.81
2022-12-04T09:59:48.831Z,2.81
2022-12-04T10:00:48.810Z,2.82
2022-12-04T10:01:48.804Z,2.81
2022-12-04T10:02:48.938Z,2.79
2022-12-04T10:03:49.034Z,2.81
2022-12-04T10:04:48.785Z,2.82
2022-12-04T10:05:48.779Z,2.84
2022-12-04T10:06:48.751Z,2.82
2022-12-04T10:07:48.834Z,2.84
2022-12-04T10:08:48.723Z,2.82
2022-12-04T10:09:48.742Z,2.79
2022-12-04T10:10:48.702Z,2.82
2022-12-04T10:11:48.709Z,2.81
2022-12-04T10:12:48.692Z,2.82
2022-12-04T10:13:48.703Z,2.85
2022-12-04T10:14:48.672Z,2.85
2022-12-04T10:15:48.690Z,2.87
2022-12-04T10:16:49.315Z,2.90
2022-12-04T10:17:48.657Z,2.90
2022-12-04T10:18:48.625Z,2.89
2022-12-04T10:19:48.636Z,2.89
2022-12-04T10:20:48.604Z,2.89
2022-12-04T10:21:48.604Z,2.90
2022-12-04T10:22:48.577Z,2.92
2022-12-04T10:23:48.585Z,2.92
2022-12-04T10:24:48.616Z,2.93
2022-12-04T10:25:48.575Z,2.96
2022-12-04T10:26:48.547Z,2.95
2022-12-04T10:27:48.545Z,2.96
2022-12-04T10:28:54.883Z,2.99
2022-12-04T10:29:49.526Z,2.99
2022-12-04T10:30:48.589Z,2.99
2022-12-04T10:31:48.589Z,2.96
2022-12-04T10:32:48.476Z,2.97
2022-12-04T10:33:48.504Z,2.95
2022-12-04T10:34:48.470Z,2.97
2022-12-04T10:35:49.099Z,2.97
2022-12-04T10:36:48.467Z,2.95
2022-12-04T10:37:48.451Z,2.97
2022-12-04T10:38:48.419Z,2.99
2022-12-04T10:39:48.419Z,2.97
2022-12-04T10:40:48.411Z,2.99
2022-12-04T10:41:48.412Z,2.99
2022-12-04T10:42:48.380Z,2.99
2022-12-04T10:43:48.379Z,2.99
2022-12-04T10:44:48.364Z,3.02
2022-12-04T10:45:48.370Z,3.05
2022-12-04T10:46:48.455Z,3.03
2022-12-04T10:47:48.331Z,3.05
2022-12-04T10:48:48.311Z,3.02
2022-12-04T10:49:48.331Z,2.99
2022-12-04T10:50:48.292Z,2.95
2022-12-04T10:51:48.302Z,2.92
2022-12-04T10:52:48.282Z,2.87
2022-12-04T10:53:48.271Z,2.85
2022-12-04T10:54:48.272Z,2.87
2022-12-04T10:55:48.260Z,2.87
2022-12-04T10:56:48.233Z,2.85
2022-12-04T10:57:48.254Z,2.89
2022-12-04T10:58:48.695Z,2.90
2022-12-04T10:59:48.213Z,2.89
2022-12-04T11:00:48.193Z,2.92
2022-12-04T11:01:48.244Z,2.89
2022-12-04T11:02:48.259Z,2.90
2022-12-04T11:03:48.175Z,2.85
2022-12-04T11:04:48.196Z,2.84
2022-12-04T11:05:48.145Z,2.81
2022-12-04T11:06:48.142Z,2.81
2022-12-04T11:07:48.238Z,2.78
2022-12-04T11:08:48.119Z,2.77
2022-12-04T11:09:48.114Z,2.74
2022-12-04T11:10:48.093Z,2.71
2022-12-04T11:11:48.086Z,2.71
2022-12-04T11:12:48.066Z,2.72
2022-12-04T11:13:48.377Z,2.69
2022-12-04T11:14:48.057Z,2.74
2022-12-04T11:15:48.145Z,2.74
2022-12-04T11:16:48.034Z,2.74
2022-12-04T11:17:48.027Z,2.75
2022-12-04T11:18:48.007Z,2.75
2022-12-04T11:19:48.006Z,2.74
2022-12-04T11:20:47.995Z,2.74
2022-12-04T11:21:47.986Z,2.71
2022-12-04T11:22:47.975Z,2.72
2022-12-04T11:23:47.978Z,2.74
2022-12-04T11:24:47.956Z,2.71
2022-12-04T11:25:47.947Z,2.67
2022-12-04T11:26:47.958Z,2.66
2022-12-04T11:27:47.918Z,2.64
2022-12-04T11:28:47.934Z,2.63
2022-12-04T11:29:47.899Z,2.60
2022-12-04T11:30:47.879Z,2.59
2022-12-04T11:31:47.964Z,2.59
2022-12-04T11:32:47.859Z,2.60
2022-12-04T11:33:47.864Z,2.60
2022-12-04T11:34:47.840Z,2.63
2022-12-04T11:35:47.840Z,2.63
2022-12-04T11:36:48.620Z,2.64
2022-12-04T11:37:47.819Z,2.66
2022-12-04T11:38:47.808Z,2.69
2022-12-04T11:39:47.819Z,2.67
2022-12-04T11:40:47.780Z,2.71
2022-12-04T11:41:47.770Z,2.69
2022-12-04T11:42:47.758Z,2.74
2022-12-04T11:43:47.758Z,2.71
2022-12-04T11:44:47.732Z,2.71
2022-12-04T11:45:47.733Z,2.72
2022-12-04T11:46:47.761Z,2.74
2022-12-04T11:47:47.713Z,2.77
2022-12-04T11:48:47.698Z,2.78
2022-12-04T11:49:47.692Z,2.79
2022-12-04T11:50:47.673Z,2.81
2022-12-04T11:51:47.674Z,2.84
2022-12-04T11:52:47.658Z,2.85
2022-12-04T11:53:47.669Z,2.85
2022-12-04T11:54:47.631Z,2.85
2022-12-04T11:55:47.637Z,2.84
2022-12-04T11:56:47.753Z,2.85
2022-12-04T11:57:47.614Z,2.87
2022-12-04T11:58:47.602Z,2.87
2022-12-04T11:59:47.585Z,2.87
2022-12-04T12:00:47.574Z,2.96
2022-12-04T12:01:47.820Z,2.99
2022-12-04T12:02:47.670Z,2.96
2022-12-04T12:03:47.637Z,3.03
2022-12-04T12:04:47.526Z,3.06
2022-12-04T12:05:47.533Z,3.10
2022-12-04T12:06:47.535Z,3.11
2022-12-04T12:07:47.604Z,3.08
2022-12-04T12:08:47.489Z,3.10
2022-12-04T12:09:47.487Z,3.06
2022-12-04T12:10:47.465Z,3.03
2022-12-04T12:11:47.466Z,3.10
2022-12-04T12:12:47.472Z,3.14
2022-12-04T12:13:47.456Z,3.13
2022-12-04T12:14:47.433Z,3.17
2022-12-04T12:15:47.426Z,3.20
2022-12-04T12:16:49.927Z,3.21
2022-12-04T12:17:47.409Z,3.24
2022-12-04T12:18:47.501Z,3.28
2022-12-04T12:19:47.386Z,3.31
2022-12-04T12:20:47.369Z,3.35
2022-12-04T12:21:47.368Z,3.40
2022-12-04T12:22:47.339Z,3.42
2022-12-04T12:23:47.519Z,3.43
2022-12-04T12:24:52.874Z,3.45
2022-12-04T12:25:52.140Z,3.50
2022-12-04T12:26:47.312Z,3.52
2022-12-04T12:27:47.299Z,3.55
2022-12-04T12:28:47.281Z,3.62
2022-12-04T12:29:47.289Z,3.61
2022-12-04T12:30:47.272Z,3.58
2022-12-04T12:31:47.629Z,3.58
2022-12-04T12:32:47.245Z,3.57
2022-12-04T12:33:47.340Z,3.55
2022-12-04T12:34:47.220Z,3.52
2022-12-04T12:35:47.219Z,3.52
2022-12-04T12:36:47.211Z,3.47
2022-12-04T12:37:47.212Z,3.47
2022-12-04T12:38:47.182Z,3.40
2022-12-04T12:39:47.194Z,3.42
2022-12-04T12:40:47.158Z,3.36
2022-12-04T12:41:47.281Z,3.31
2022-12-04T12:42:47.212Z,3.26
2022-12-04T12:43:47.208Z,3.28
2022-12-04T12:44:47.174Z,3.26
2022-12-04T12:45:47.154Z,3.20
2022-12-04T12:46:47.112Z,3.15
2022-12-04T12:47:47.101Z,3.15
2022-12-04T12:48:47.097Z,3.11
2022-12-04T12:49:47.073Z,3.11
2022-12-04T12:50:54.737Z,3.11
2022-12-04T12:51:48.063Z,3.08
2022-12-04T12:52:47.053Z,3.10
2022-12-04T12:53:47.837Z,3.08
2022-12-04T12:54:47.033Z,3.08
2022-12-04T12:55:47.013Z,3.11
2022-12-04T12:56:49.786Z,3.13
2022-12-04T12:57:46.985Z,3.13
2022-12-04T12:58:47.197Z,3.10
2022-12-04T12:59:46.966Z,3.10
2022-12-04T13:00:47.040Z,3.10
2022-12-04T13:01:47.066Z,3.11
2022-12-04T13:02:47.011Z,3.17
2022-12-04T13:03:46.925Z,3.17
2022-12-04T13:04:46.930Z,3.18
2022-12-04T13:05:46.908Z,3.24
2022-12-04T13:06:46.906Z,3.31
2022-12-04T13:07:46.936Z,3.35
2022-12-04T13:08:49.282Z,3.39
2022-12-04T13:09:46.867Z,3.33
2022-12-04T13:10:46.867Z,3.28
2022-12-04T13:11:46.859Z,3.31
2022-12-04T13:12:46.859Z,3.31
2022-12-04T13:13:46.828Z,3.35
2022-12-04T13:14:49.142Z,3.35
2022-12-04T13:15:46.799Z,3.36
2022-12-04T13:16:46.934Z,3.36
2022-12-04T13:17:46.787Z,3.35
2022-12-04T13:18:46.778Z,3.29
2022-12-04T13:19:46.760Z,3.28
2022-12-04T13:20:46.758Z,3.32
2022-12-04T13:21:46.741Z,3.33
2022-12-04T13:22:46.741Z,3.31